createdAt,value
2022-12-31T00:02:10.759Z,8.75
2022-12-31T00:05:10.791Z,8.71
2022-12-31T00:08:10.730Z,8.71
2022-12-31T00:11:10.740Z,8.69
2022-12-31T00:14:10.760Z,8.7
2022-12-31T00:17:10.834Z,8.7
2022-12-31T00:20:10.769Z,8.71
2022-12-31T00:23:10.776Z,8.78
2022-12-31T00:26:10.791Z,8.82
2022-12-31T00:29:10.823Z,8.82
2022-12-31T00:32:10.818Z,8.81
2022-12-31T00:35:10.862Z,8.88
2022-12-31T00:38:10.843Z,8.87
2022-12-31T00:41:10.853Z,8.91
2022-12-31T00:44:10.876Z,8.9
2022-12-31T00:47:10.877Z,8.91
2022-12-31T00:50:10.901Z,8.91
2022-12-31T00:53:10.930Z,8.92
2022-12-31T00:56:10.919Z,8.98
2022-12-31T00:59:10.944Z,8.91
2022-12-31T01:02:11.033Z,8.91
2022-12-31T01:05:10.959Z,8.88
2022-12-31T01:08:10.972Z,8.9
2022-12-31T01:11:11.018Z,8.91
2022-12-31T01:14:11.006Z,8.89
2022-12-31T01:17:11.012Z,8.89
2022-12-31T01:20:11.023Z,8.96
2022-12-31T01:23:11.042Z,8.96
2022-12-31T01:26:11.064Z,8.98
2022-12-31T01:29:11.107Z,8.99
2022-12-31T01:32:11.086Z,8.99
2022-12-31T01:35:11.089Z,9.05
2022-12-31T01:38:11.104Z,9.1
2022-12-31T01:41:11.104Z,9.12
2022-12-31T01:44:11.134Z,9.15
2022-12-31T01:47:11.157Z,9.18
2022-12-31T01:50:11.141Z,9.18
2022-12-31T01:53:11.143Z,9.27
2022-12-31T01:56:11.149Z,9.27
2022-12-31T01:59:11.169Z,9.27
2022-12-31T02:02:11.229Z,9.25
2022-12-31T02:05:11.191Z,9.24
2022-12-31T02:08:11.172Z,9.3
2022-12-31T02:11:11.185Z,9.3
2022-12-31T02:14:11.214Z,9.33
2022-12-31T02:17:11.190Z,9.34
2022-12-31T02:20:11.193Z,9.33
2022-12-31T02:23:11.237Z,9.34
2022-12-31T02:26:11.198Z,9.34
2022-12-31T02:29:11.219Z,9.31
2022-12-31T02:32:12.520Z,9.38
2022-12-31T02:35:11.212Z,9.42
2022-12-31T02:38:11.217Z,9.42
2022-12-31T02:41:11.239Z,9.42
2022-12-31T02:44:11.233Z,9.43
2022-12-31T02:47:11.235Z,9.46
2022-12-31T02:50:11.233Z,9.5
2022-12-31T02:53:11.240Z,9.52
2022-12-31T02:56:11.245Z,9.52
2022-12-31T02:59:11.287Z,9.53
2022-12-31T03:02:11.292Z,9.53
2022-12-31T03:05:11.254Z,9.54
2022-12-31T03:08:11.254Z,9.53
2022-12-31T03:11:11.259Z,9.58
2022-12-31T03:14:11.269Z,9.55
2022-12-31T03:17:11.291Z,9.59
2022-12-31T03:20:11.268Z,9.57
2022-12-31T03:23:11.312Z,9.62
2022-12-31T03:26:11.284Z,9.61
2022-12-31T03:29:11.308Z,9.64
2022-12-31T03:32:11.295Z,9.67
2022-12-31T03:35:11.329Z,9.65
2022-12-31T03:38:11.298Z,9.64
2022-12-31T03:41:11.305Z,9.69
2022-12-31T03:44:11.331Z,9.64
2022-12-31T03:47:11.317Z,9.67
2022-12-31T03:50:11.317Z,9.71
2022-12-31T03:53:11.362Z,9.69
2022-12-31T03:56:11.333Z,9.69
2022-12-31T03:59:11.336Z,9.76
2022-12-31T04:02:11.538Z,9.81
2022-12-31T04:05:11.333Z,9.81
2022-12-31T04:08:11.345Z,9.84
2022-12-31T04:11:13.653Z,9.91
2022-12-31T04:14:11.358Z,9.9
2022-12-31T04:17:11.369Z,9.89
2022-12-31T04:20:11.381Z,9.96
2022-12-31T04:23:11.367Z,10
2022-12-31T04:26:11.383Z,10.04
2022-12-31T04:29:11.415Z,10.1
2022-12-31T04:32:11.516Z,10.11
2022-12-31T04:35:11.419Z,10.13
2022-12-31T04:38:11.405Z,10.1
2022-12-31T04:41:11.416Z,10.11
2022-12-31T04:44:11.423Z,10.12
2022-12-31T04:47:11.448Z,10.13
2022-12-31T04:50:11.447Z,10.08
2022-12-31T04:53:11.426Z,10.1
2022-12-31T04:56:11.430Z,10.05
2022-12-31T04:59:11.448Z,10.06
2022-12-31T05:02:11.616Z,10.07
2022-12-31T05:05:11.468Z,10.09
2022-12-31T05:08:11.476Z,10.09
2022-12-31T05:11:11.451Z,10.1
2022-12-31T05:14:11.464Z,10.1
2022-12-31T05:17:11.447Z,10.1
2022-12-31T05:20:11.451Z,10.1
2022-12-31T05:23:11.479Z,10.16
2022-12-31T05:26:11.450Z,10.15
2022-12-31T05:29:11.469Z,10.22
2022-12-31T05:32:11.464Z,10.21
2022-12-31T05:35:11.459Z,10.24
2022-12-31T05:38:11.476Z,10.31
2022-12-31T05:41:11.590Z,10.41
2022-12-31T05:44:11.476Z,10.35
2022-12-31T05:47:11.471Z,10.39
2022-12-31T05:50:11.473Z,10.44
2022-12-31T05:53:11.472Z,10.4
2022-12-31T05:56:11.472Z,10.44
2022-12-31T05:59:11.535Z,10.5
2022-12-31T06:02:11.482Z,10.52
2022-12-31T06:05:11.475Z,10.46
2022-12-31T06:08:11.493Z,10.43
2022-12-31T06:11:11.495Z,10.33
2022-12-31T06:14:11.509Z,10.32
2022-12-31T06:17:11.516Z,10.22
2022-12-31T06:20:13.218Z,10.25
2022-12-31T06:23:11.489Z,10.22
2022-12-31T06:26:11.485Z,10.16
2022-12-31T06:29:11.509Z,10.2
2022-12-31T06:32:11.510Z,10.21
2022-12-31T06:35:11.525Z,10.17
2022-12-31T06:38:11.507Z,10.17
2022-12-31T06:41:11.514Z,10.21
2022-12-31T06:44:11.532Z,10.21
2022-12-31T06:47:11.624Z,10.23
2022-12-31T06:50:11.515Z,10.23
2022-12-31T06:53:11.539Z,10.25
2022-12-31T06:56:11.515Z,10.26
2022-12-31T06:59:11.529Z,10.26
2022-12-31T07:02:11.565Z,10.27
2022-12-31T07:05:11.524Z,10.27
2022-12-31T07:08:11.530Z,10.27
2022-12-31T07:11:11.548Z,10.28
2022-12-31T07:14:11.536Z,10.28
2022-12-31T07:17:11.530Z,10.28
2022-12-31T07:20:11.551Z,10.29
2022-12-31T07:23:11.581Z,10.29
2022-12-31T07:26:11.544Z,10.3
2022-12-31T07:29:11.584Z,10.23
2022-12-31T07:32:11.546Z,10.24
2022-12-31T07:35:11.544Z,10.24
2022-12-31T07:38:11.547Z,10.24
2022-12-31T07:41:11.555Z,10.24
2022-12-31T07:44:11.570Z,10.25
2022-12-31T07:47:11.575Z,10.25
2022-12-31T07:50:11.549Z,10.18
2022-12-31T07:53:11.558Z,10.19
2022-12-31T07:56:11.558Z,10.19
2022-12-31T07:59:11.587Z,10.19
2022-12-31T08:02:11.593Z,10.23
2022-12-31T08:05:11.601Z,10.2
2022-12-31T08:08:11.571Z,10.2
2022-12-31T08:11:11.579Z,10.2
2022-12-31T08:14:11.583Z,10.2
2022-12-31T08:17:11.575Z,10.2
2022-12-31T08:20:11.577Z,10.15
2022-12-31T08:23:11.608Z,10.21
2022-12-31T08:26:11.590Z,10.15
2022-12-31T08:29:11.601Z,10.15
2022-12-31T08:32:11.584Z,10.15
2022-12-31T08:35:11.615Z,10.15
2022-12-31T08:38:11.596Z,10.16
2022-12-31T08:41:11.620Z,10.15
2022-12-31T08:44:11.609Z,10.23
2022-12-31T08:47:11.600Z,10.23
2022-12-31T08:50:11.599Z,10.23
2022-12-31T08:53:11.624Z,10.24
2022-12-31T08:56:11.609Z,10.3
2022-12-31T08:59:11.653Z,10.3
2022-12-31T09:02:11.647Z,10.36
2022-12-31T09:05:11.620Z,10.36
2022-12-31T09:08:11.612Z,10.44
2022-12-31T09:11:11.620Z,10.44
2022-12-31T09:14:11.840Z,10.44
2022-12-31T09:17:11.653Z,10.36
2022-12-31T09:20:11.633Z,10.36
2022-12-31T09:23:11.645Z,10.36
2022-12-31T09:26:11.637Z,10.43
2022-12-31T09:29:11.650Z,10.42
2022-12-31T09:32:11.642Z,10.42
2022-12-31T09:35:11.676Z,10.48
2022-12-31T09:38:12.088Z,10.55
2022-12-31T09:41:11.663Z,10.62
2022-12-31T09:44:11.670Z,10.67
2022-12-31T09:47:11.673Z,10.67
2022-12-31T09:50:11.666Z,10.67
2022-12-31T09:53:11.700Z,10.66
2022-12-31T09:56:11.679Z,10.66
2022-12-31T09:59:11.691Z,10.73
2022-12-31T10:02:11.859Z,10.72
2022-12-31T10:05:11.686Z,10.72
2022-12-31T10:08:11.690Z,10.72
2022-12-31T10:11:11.719Z,10.77
2022-12-31T10:14:11.702Z,10.85
2022-12-31T10:17:11.725Z,11.05
2022-12-31T10:20:11.699Z,11.25
2022-12-31T10:23:11.702Z,11.14
2022-12-31T10:26:11.707Z,11.09
2022-12-31T10:29:11.740Z,11.08
2022-12-31T10:32:11.712Z,11.05
2022-12-31T10:35:11.729Z,11.04
2022-12-31T10:38:11.723Z,11.04
2022-12-31T10:41:11.738Z,11.11
2022-12-31T10:44:11.744Z,11.16
2022-12-31T10:47:11.768Z,11.21
2022-12-31T10:50:11.745Z,11.32
2022-12-31T10:53:11.749Z,11.3
2022-12-31T10:56:11.759Z,11.31
2022-12-31T10:59:11.765Z,11.29
2022-12-31T11:02:11.846Z,11.31
2022-12-31T11:05:11.787Z,11.3
2022-12-31T11:08:11.773Z,11.35
2022-12-31T11:11:11.767Z,11.34
2022-12-31T11:14:11.789Z,11.31
2022-12-31T11:17:11.784Z,11.27
2022-12-31T11:20:11.782Z,11.24
2022-12-31T11:23:11.806Z,11.22
2022-12-31T11:26:11.788Z,11.18
2022-12-31T11:29:11.795Z,11.15
2022-12-31T11:32:11.786Z,11.16
2022-12-31T11:35:11.797Z,11.19
2022-12-31T11:38:11.795Z,11.1
2022-12-31T11:41:11.821Z,11.11
2022-12-31T11:44:11.809Z,11.12
2022-12-31T11:47:11.804Z,11.05
2022-12-31T11:50:11.825Z,11.06
2022-12-31T11:53:11.814Z,11.05
2022-12-31T11:56:11.806Z,11.06
2022-12-31T11:59:15.818Z,11.03
2022-12-31T12:02:11.815Z,10.94
2022-12-31T12:05:11.836Z,10.97
2022-12-31T12:08:11.826Z,10.91
2022-12-31T12:11:11.818Z,11.03
2022-12-31T12:14:11.832Z,10.98
2022-12-31T12:17:11.851Z,11.34
2022-12-31T12:20:11.963Z,11.41
2022-12-31T12:23:11.829Z,11.36
2022-12-31T12:26:11.841Z,11.42
2022-12-31T12:29:12.128Z,11.4
2022-12-31T12:32:11.844Z,11.36
2022-12-31T12:35:11.875Z,11.34
2022-12-31T12:38:11.845Z,11.35
2022-12-31T12:41:11.849Z,11.34
2022-12-31T12:44:11.851Z,11.4
2022-12-31T12:47:11.859Z,11.38
2022-12-31T12:50:11.864Z,11.41
2022-12-31T12:53:11.882Z,11.36
2022-12-31T12:56:11.856Z,11.45
2022-12-31T12:59:11.863Z,11.43
2022-12-31T13:02:11.981Z,11.43
2022-12-31T13:05:11.863Z,11.43
2022-12-31T13:08:11.864Z,11.43
2022-12-31T13:11:11.900Z,11.43
2022-12-31T13:14:11.869Z,11.43
2022-12-31T13:17:11.877Z,11.5
2022-12-31T13:20:11.878Z,11.48
2022-12-31T13:23:11.871Z,11.43
2022-12-31T13:26:11.874Z,11.36
2022-12-31T13:29:11.901Z,11.4
2022-12-31T13:32:11.882Z,11.3
2022-12-31T13:35:11.880Z,11.32
2022-12-31T13:38:11.897Z,11.21
2022-12-31T13:41:11.897Z,11.28
2022-12-31T13:44:11.885Z,11.24
2022-12-31T13:47:11.913Z,11.16
2022-12-31T13:50:14.505Z,11.15
2022-12-31T13:53:11.885Z,11.11
2022-12-31T13:56:11.909Z,11.1
2022-12-31T13:59:11.889Z,11.03
2022-12-31T14:02:12.017Z,10.95
2022-12-31T14:05:11.913Z,11.03
2022-12-31T14:08:11.898Z,10.99
2022-12-31T14:11:11.893Z,10.97
2022-12-31T14:14:11.894Z,10.89
2022-12-31T14:17:11.898Z,10.83
2022-12-31T14:20:11.894Z,10.98
2022-12-31T14:23:11.924Z,10.95
2022-12-31T14:26:11.901Z,10.94
2022-12-31T14:29:11.900Z,10.97
2022-12-31T14:32:11.905Z,10.9
2022-12-31T14:35:11.899Z,10.91
2022-12-31T14:38:11.911Z,10.92
2022-12-31T14:41:11.944Z,10.91
2022-12-31T14:44:11.906Z,10.94
2022-12-31T14:47:11.914Z,10.88
2022-12-31T14:50:11.907Z,10.86
2022-12-31T14:53:11.913Z,10.86
2022-12-31T14:56:11.921Z,10.8
2022-12-31T14:59:11.941Z,10.74
2022-12-31T15:02:11.980Z,10.78
2022-12-31T15:05:11.927Z,10.78
2022-12-31T15:08:11.922Z,10.81
2022-12-31T15:11:11.920Z,10.69
2022-12-31T15:14:11.923Z,10.69
2022-12-31T15:17:11.977Z,10.74
2022-12-31T15:20:17.149Z,10.74
2022-12-31T15:23:11.938Z,10.67
2022-12-31T15:26:11.943Z,10.69
2022-12-31T15:29:11.952Z,10.72
2022-12-31T15:32:11.955Z,10.68
2022-12-31T15:35:11.990Z,10.71
2022-12-31T15:38:11.970Z,10.69
2022-12-31T15:41:11.978Z,10.64
2022-12-31T15:44:11.982Z,10.65
2022-12-31T15:47:11.988Z,10.67
2022-12-31T15:50:11.995Z,10.67
2022-12-31T15:53:12.023Z,10.72
2022-12-31T15:56:12.008Z,10.66
2022-12-31T15:59:12.021Z,10.65
2022-12-31T16:02:12.185Z,10.67
2022-12-31T16:05:12.023Z,10.68
2022-12-31T16:08:12.031Z,10.64
2022-12-31T16:11:12.058Z,10.61
2022-12-31T16:14:12.046Z,10.63
2022-12-31T16:17:12.057Z,10.6
2022-12-31T16:20:12.060Z,10.61
2022-12-31T16:23:12.066Z,10.55
2022-12-31T16:26:12.090Z,10.51
2022-12-31T16:29:12.113Z,10.51
2022-12-31T16:32:12.089Z,10.51
2022-12-31T16:35:18.830Z,10.53
2022-12-31T16:38:12.102Z,10.42
2022-12-31T16:41:12.121Z,10.37
2022-12-31T16:44:12.118Z,10.44
2022-12-31T16:47:12.151Z,10.39
2022-12-31T16:50:12.139Z,10.37
2022-12-31T16:53:12.142Z,10.32
2022-12-31T16:56:12.145Z,10.32
2022-12-31T16:59:12.153Z,10.3
2022-12-31T17:02:12.251Z,10.21
2022-12-31T17:05:12.197Z,10.17
2022-12-31T17:08:12.176Z,10.12
2022-12-31T17:11:12.182Z,10.15
2022-12-31T17:14:12.194Z,10.11
2022-12-31T17:17:12.206Z,10.11
2022-12-31T17:20:12.207Z,10.09
2022-12-31T17:23:12.275Z,10.07
2022-12-31T17:26:12.228Z,10.04
2022-12-31T17:29:12.227Z,10
2022-12-31T17:32:12.230Z,10.07
2022-12-31T17:35:12.245Z,10
2022-12-31T17:38:12.250Z,10.06
2022-12-31T17:41:12.287Z,10
2022-12-31T17:44:12.264Z,10.03
2022-12-31T17:47:12.270Z,10.01
2022-12-31T17:50:12.291Z,9.96
2022-12-31T17:53:12.290Z,10.02
2022-12-31T17:56:12.315Z,9.96
2022-12-31T17:59:12.337Z,9.93
2022-12-31T18:02:12.454Z,9.98
2022-12-31T18:05:12.326Z,9.96
2022-12-31T18:08:12.347Z,9.96
2022-12-31T18:11:12.352Z,9.96
2022-12-31T18:14:12.359Z,10.02
2022-12-31T18:17:12.395Z,10.04
2022-12-31T18:20:12.378Z,10.08
2022-12-31T18:23:12.387Z,10.09
2022-12-31T18:26:12.399Z,10.18
2022-12-31T18:29:12.434Z,10.19
2022-12-31T18:32:12.423Z,10.13
2022-12-31T18:35:26.654Z,10.13
2022-12-31T18:38:12.436Z,10.17
2022-12-31T18:41:12.445Z,10.12
2022-12-31T18:44:12.462Z,10.09
2022-12-31T18:47:12.467Z,10.1
2022-12-31T18:50:12.488Z,10.1
2022-12-31T18:53:12.524Z,10.09
2022-12-31T18:56:12.502Z,10.06
2022-12-31T18:59:12.508Z,10.11
2022-12-31T19:02:12.566Z,10.08
2022-12-31T19:05:12.526Z,10.07
2022-12-31T19:08:12.533Z,10.02
2022-12-31T19:11:12.570Z,10.01
2022-12-31T19:14:12.555Z,9.99
2022-12-31T19:17:12.598Z,10.01
2022-12-31T19:20:12.578Z,9.96
2022-12-31T19:23:12.584Z,9.96
2022-12-31T19:26:12.591Z,9.96
2022-12-31T19:29:12.633Z,9.9
2022-12-31T19:32:12.627Z,9.89
2022-12-31T19:35:12.629Z,9.91
2022-12-31T19:38:12.634Z,9.84
2022-12-31T19:41:12.644Z,9.83
2022-12-31T19:44:12.652Z,9.8
2022-12-31T19:47:12.692Z,9.79
2022-12-31T19:50:12.690Z,9.78
2022-12-31T19:53:12.671Z,9.75
2022-12-31T19:56:12.683Z,9.75
2022-12-31T19:59:12.690Z,9.76
2022-12-31T20:02:12.815Z,9.7
2022-12-31T20:05:12.730Z,9.7
2022-12-31T20:08:12.709Z,9.66
2022-12-31T20:11:12.729Z,9.65
2022-12-31T20:14:12.736Z,9.69
2022-12-31T20:17:12.738Z,9.61
2022-12-31T20:20:12.756Z,9.61
2022-12-31T20:23:12.793Z,9.62
2022-12-31T20:26:12.787Z,9.61
2022-12-31T20:29:12.782Z,9.54
2022-12-31T20:32:12.790Z,9.51
2022-12-31T20:35:12.781Z,9.49
2022-12-31T20:38:12.798Z,9.44
2022-12-31T20:41:12.843Z,9.46
2022-12-31T20:44:12.799Z,9.45
2022-12-31T20:47:12.807Z,9.41
2022-12-31T20:50:13.088Z,9.41
2022-12-31T20:53:12.821Z,9.35
2022-12-31T20:56:12.824Z,9.4
2022-12-31T20:59:12.855Z,9.34
2022-12-31T21:02:20.797Z,9.34
2022-12-31T21:05:13.077Z,9.32
2022-12-31T21:08:12.849Z,9.26
2022-12-31T21:11:12.854Z,9.25
2022-12-31T21:14:12.863Z,9.25
2022-12-31T21:17:12.888Z,9.23
2022-12-31T21:20:12.865Z,9.15
2022-12-31T21:23:12.866Z,9.17
2022-12-31T21:26:12.875Z,9.13
2022-12-31T21:29:12.893Z,9.1
2022-12-31T21:32:12.883Z,9.08
2022-12-31T21:38:12.888Z,9.07
2022-12-31T21:41:12.901Z,9.04
2022-12-31T21:44:12.902Z,9.04
2022-12-31T21:47:36.372Z,8.95
2022-12-31T21:50:12.909Z,8.98
2022-12-31T21:53:12.942Z,8.99
2022-12-31T21:56:12.943Z,8.94
2022-12-31T21:59:12.920Z,8.97
2022-12-31T22:02:12.985Z,8.86
2022-12-31T22:05:19.853Z,8.91
2022-12-31T22:08:12.944Z,8.87
2022-12-31T22:11:12.981Z,8.87
2022-12-31T22:14:12.951Z,8.83
2022-12-31T22:17:12.953Z,8.82
2022-12-31T22:20:28.777Z,8.81
2022-12-31T22:23:12.972Z,8.81
2022-12-31T22:26:12.980Z,8.8
2022-12-31T22:29:13.003Z,8.76
2022-12-31T22:32:12.981Z,8.78
2022-12-31T22:35:12.988Z,8.7
2022-12-31T22:38:12.981Z,8.69
2022-12-31T22:41:12.999Z,8.68
2022-12-31T22:44:12.996Z,8.71
2022-12-31T22:47:13.024Z,8.64
2022-12-31T22:50:13.013Z,8.64
2022-12-31T22:53:13.000Z,8.63
2022-12-31T22:56:13.001Z,8.59
2022-12-31T22:59:13.012Z,8.63
2022-12-31T23:02:13.012Z,8.56
2022-12-31T23:05:15.040Z,8.58
2022-12-31T23:08:22.219Z,8.51
2022-12-31T23:11:13.022Z,8.56
2022-12-31T23:14:13.021Z,8.52
2022-12-31T23:17:29.248Z,8.51
2022-12-31T23:20:13.039Z,8.51
2022-12-31T23:23:13.051Z,8.46
2022-12-31T23:26:13.023Z,8.47
2022-12-31T23:29:13.037Z,8.41
2022-12-31T23:32:13.039Z,8.41
2022-12-31T23:35:13.055Z,8.4
2022-12-31T23:38:13.056Z,8.4
2022-12-31T23:41:13.081Z,8.4
2022-12-31T23:44:13.067Z,8.41
2022-12-31T23:47:13.070Z,8.38
2022-12-31T23:50:13.082Z,8.38
2022-12-31T23:53:13.085Z,8.41
2022-12-31T23:56:19.264Z,8.38
2022-12-31T23:59:13.132Z,8.4
